Fairplay, Maryland
Current Conditions -  °F | °C
As of 10:15 PM on Monday 26 Jan 2015 (Local Time) from KHGR Reporting Station
Light Snow Light Snow  
Wind Chill: 16°   Ceiling: 1500
Heat Index: 25°   Visibility: 1.5mi
Dew Point: 22°   Wind: 8mph
Humidity: 88%   Direction: 320°NW
Pressure: 29.79"   Gusts: NA
Location:  39.54°N, 77.75°W
Report Text: KHGR 270315Z AUTO 32007KT 1 1/2SM -SN BR BKN015 OVC042 M04/M06 A2979 RMK AO2 P0001 T10391056
Loading
Personal Weather Stations






























Interactive Weather Map New forecast layout! Learn more

10-Day Weather Forecast

Advertisements
Track Severe Weather on mobile